sensor_id;sensor_type;location;lat;lon;timestamp;pressure;altitude;pressure_sealevel;temperature;humidity
13312;BME280;34033;48.672;9.376;2022-12-18T00:00:20;99728.06;;;-4.26;73.68
13312;BME280;34033;48.672;9.376;2022-12-18T00:02:45;99724.28;;;-4.25;73.31
13312;BME280;34033;48.672;9.376;2022-12-18T00:05:11;99715.22;;;-4.30;72.78
13312;BME280;34033;48.672;9.376;2022-12-18T00:07:36;99713.75;;;-4.43;73.58
13312;BME280;34033;48.672;9.376;2022-12-18T00:10:02;99720.88;;;-4.42;75.45
13312;BME280;34033;48.672;9.376;2022-12-18T00:12:28;99724.72;;;-4.38;75.97
13312;BME280;34033;48.672;9.376;2022-12-18T00:14:53;99732.78;;;-4.53;73.45
13312;BME280;34033;48.672;9.376;2022-12-18T00:17:19;99744.13;;;-4.66;72.87
13312;BME280;34033;48.672;9.376;2022-12-18T00:19:44;99747.44;;;-4.64;74.47
13312;BME280;34033;48.672;9.376;2022-12-18T00:22:09;99737.69;;;-4.55;75.24
13312;BME280;34033;48.672;9.376;2022-12-18T00:24:34;99733.50;;;-4.63;73.14
13312;BME280;34033;48.672;9.376;2022-12-18T00:27:00;99735.38;;;-4.68;74.26
13312;BME280;34033;48.672;9.376;2022-12-18T00:29:25;99743.28;;;-4.98;73.21
13312;BME280;34033;48.672;9.376;2022-12-18T00:31:50;99736.94;;;-5.04;74.39
13312;BME280;34033;48.672;9.376;2022-12-18T00:34:16;99744.94;;;-5.24;73.92
13312;BME280;34033;48.672;9.376;2022-12-18T00:36:41;99735.19;;;-5.15;76.63
13312;BME280;34033;48.672;9.376;2022-12-18T00:39:07;99731.03;;;-5.23;74.30
13312;BME280;34033;48.672;9.376;2022-12-18T00:41:32;99728.91;;;-5.16;76.27
13312;BME280;34033;48.672;9.376;2022-12-18T00:44:18;99734.38;;;-5.16;75.28
13312;BME280;34033;48.672;9.376;2022-12-18T00:46:44;99740.47;;;-5.09;74.89
13312;BME280;34033;48.672;9.376;2022-12-18T00:49:09;99747.66;;;-4.97;77.61
13312;BME280;34033;48.672;9.376;2022-12-18T00:51:35;99749.31;;;-4.96;75.03
13312;BME280;34033;48.672;9.376;2022-12-18T00:54:00;99755.13;;;-5.15;71.58
13312;BME280;34033;48.672;9.376;2022-12-18T00:56:26;99747.63;;;-5.02;74.76
13312;BME280;34033;48.672;9.376;2022-12-18T00:58:51;99760.25;;;-5.18;72.48
13312;BME280;34033;48.672;9.376;2022-12-18T01:01:17;99745.81;;;-5.19;74.43
13312;BME280;34033;48.672;9.376;2022-12-18T01:03:42;99749.38;;;-5.18;75.01
13312;BME280;34033;48.672;9.376;2022-12-18T01:06:11;99751.53;;;-5.42;71.64
13312;BME280;34033;48.672;9.376;2022-12-18T01:08:36;99748.88;;;-5.37;76.29
13312;BME280;34033;48.672;9.376;2022-12-18T01:11:08;99760.91;;;-5.33;75.66
13312;BME280;34033;48.672;9.376;2022-12-18T01:13:34;99751.97;;;-5.50;72.57
13312;BME280;34033;48.672;9.376;2022-12-18T01:15:59;99752.25;;;-5.52;74.02
13312;BME280;34033;48.672;9.376;2022-12-18T01:18:25;99753.63;;;-5.49;73.37
13312;BME280;34033;48.672;9.376;2022-12-18T01:20:50;99746.91;;;-5.41;74.85
13312;BME280;34033;48.672;9.376;2022-12-18T01:23:15;99746.41;;;-5.60;71.82
13312;BME280;34033;48.672;9.376;2022-12-18T01:25:41;99751.97;;;-5.50;73.07
13312;BME280;34033;48.672;9.376;2022-12-18T01:28:06;99750.84;;;-5.54;74.40
13312;BME280;34033;48.672;9.376;2022-12-18T01:30:31;99748.75;;;-5.47;75.02
13312;BME280;34033;48.672;9.376;2022-12-18T01:32:57;99759.19;;;-5.39;74.84
13312;BME280;34033;48.672;9.376;2022-12-18T01:35:22;99764.63;;;-5.39;73.51
13312;BME280;34033;48.672;9.376;2022-12-18T01:37:48;99767.53;;;-5.46;73.19
13312;BME280;34033;48.672;9.376;2022-12-18T01:40:13;99765.59;;;-5.50;74.59
13312;BME280;34033;48.672;9.376;2022-12-18T01:42:38;99757.94;;;-5.53;74.47
13312;BME280;34033;48.672;9.376;2022-12-18T01:47:36;99751.06;;;-5.34;76.04
13312;BME280;34033;48.672;9.376;2022-12-18T01:50:24;99759.88;;;-5.27;76.65
13312;BME280;34033;48.672;9.376;2022-12-18T01:53:17;99762.78;;;-5.33;72.16
13312;BME280;34033;48.672;9.376;2022-12-18T01:55:49;99765.84;;;-5.30;71.78
13312;BME280;34033;48.672;9.376;2022-12-18T01:58:16;99769.25;;;-5.18;71.83
13312;BME280;34033;48.672;9.376;2022-12-18T02:00:42;99772.84;;;-5.12;71.41
13312;BME280;34033;48.672;9.376;2022-12-18T02:03:07;99767.97;;;-5.10;72.85
13312;BME280;34033;48.672;9.376;2022-12-18T02:05:44;99763.41;;;-5.05;72.75
13312;BME280;34033;48.672;9.376;2022-12-18T02:08:24;99752.50;;;-5.05;73.12
13312;BME280;34033;48.672;9.376;2022-12-18T02:11:08;99754.63;;;-5.07;73.26
13312;BME280;34033;48.672;9.376;2022-12-18T02:19:02;99753.13;;;-4.97;72.25
13312;BME280;34033;48.672;9.376;2022-12-18T02:21:34;99754.78;;;-4.96;73.71
13312;BME280;34033;48.672;9.376;2022-12-18T02:27:04;99757.50;;;-4.96;69.54
13312;BME280;34033;48.672;9.376;2022-12-18T02:31:58;99759.41;;;-4.97;69.67
13312;BME280;34033;48.672;9.376;2022-12-18T02:34:28;99758.56;;;-4.97;69.69
13312;BME280;34033;48.672;9.376;2022-12-18T02:36:56;99763.16;;;-5.03;67.53
13312;BME280;34033;48.672;9.376;2022-12-18T02:39:25;99758.56;;;-4.97;68.88
13312;BME280;34033;48.672;9.376;2022-12-18T02:41:51;99766.47;;;-4.96;69.05
13312;BME280;34033;48.672;9.376;2022-12-18T02:44:17;99763.50;;;-4.94;66.28
13312;BME280;34033;48.672;9.376;2022-12-18T02:46:51;99774.31;;;-5.05;66.76
13312;BME280;34033;48.672;9.376;2022-12-18T02:55:04;99792.78;;;-5.33;66.00
13312;BME280;34033;48.672;9.376;2022-12-18T03:00:10;99799.38;;;-5.29;66.34
13312;BME280;34033;48.672;9.376;2022-12-18T03:02:38;99791.75;;;-5.27;67.36
13312;BME280;34033;48.672;9.376;2022-12-18T03:05:28;99794.19;;;-5.31;69.71
13312;BME280;34033;48.672;9.376;2022-12-18T03:08:03;99792.59;;;-5.27;68.60
13312;BME280;34033;48.672;9.376;2022-12-18T03:10:34;99777.94;;;-5.21;68.59
13312;BME280;34033;48.672;9.376;2022-12-18T03:13:13;99779.72;;;-5.10;66.63
13312;BME280;34033;48.672;9.376;2022-12-18T03:15:45;99778.63;;;-5.09;64.40
13312;BME280;34033;48.672;9.376;2022-12-18T03:18:22;99785.94;;;-5.14;65.91
13312;BME280;34033;48.672;9.376;2022-12-18T03:20:49;99781.84;;;-5.12;66.76
13312;BME280;34033;48.672;9.376;2022-12-18T03:23:21;99784.09;;;-5.09;66.79
13312;BME280;34033;48.672;9.376;2022-12-18T03:25:51;99783.50;;;-5.11;66.40
13312;BME280;34033;48.672;9.376;2022-12-18T03:28:21;99793.59;;;-5.11;66.90
13312;BME280;34033;48.672;9.376;2022-12-18T03:30:47;99796.06;;;-5.10;65.78
13312;BME280;34033;48.672;9.376;2022-12-18T03:33:27;99797.72;;;-5.09;65.15
13312;BME280;34033;48.672;9.376;2022-12-18T03:35:54;99811.84;;;-5.12;65.38
13312;BME280;34033;48.672;9.376;2022-12-18T03:38:19;99803.13;;;-5.14;64.48
13312;BME280;34033;48.672;9.376;2022-12-18T03:44:10;99792.69;;;-5.17;63.32
13312;BME280;34033;48.672;9.376;2022-12-18T03:46:41;99793.78;;;-5.18;63.26
13312;BME280;34033;48.672;9.376;2022-12-18T03:49:11;99799.22;;;-5.18;65.57
13312;BME280;34033;48.672;9.376;2022-12-18T03:51:59;99794.88;;;-5.19;65.04
13312;BME280;34033;48.672;9.376;2022-12-18T03:54:28;99794.06;;;-5.19;65.86
13312;BME280;34033;48.672;9.376;2022-12-18T03:56:58;99794.34;;;-5.16;64.36
13312;BME280;34033;48.672;9.376;2022-12-18T03:59:26;99799.22;;;-5.18;65.21
13312;BME280;34033;48.672;9.376;2022-12-18T04:01:53;99805.72;;;-5.24;64.19
13312;BME280;34033;48.672;9.376;2022-12-18T04:04:24;99813.31;;;-5.26;63.40
13312;BME280;34033;48.672;9.376;2022-12-18T04:06:51;99816.22;;;-5.32;62.91
13312;BME280;34033;48.672;9.376;2022-12-18T04:09:18;99804.75;;;-5.34;64.85
13312;BME280;34033;48.672;9.376;2022-12-18T04:11:45;99809.06;;;-5.38;64.66
13312;BME280;34033;48.672;9.376;2022-12-18T04:14:11;99797.69;;;-5.35;64.39
13312;BME280;34033;48.672;9.376;2022-12-18T04:16:36;99795.78;;;-5.35;63.22
13312;BME280;34033;48.672;9.376;2022-12-18T04:19:02;99802.03;;;-5.34;63.23
13312;BME280;34033;48.672;9.376;2022-12-18T04:21:27;99797.41;;;-5.34;64.45
13312;BME280;34033;48.672;9.376;2022-12-18T04:23:53;99794.94;;;-5.35;63.25
13312;BME280;34033;48.672;9.376;2022-12-18T04:26:18;99794.13;;;-5.36;64.33
13312;BME280;34033;48.672;9.376;2022-12-18T04:28:43;99793.53;;;-5.38;63.46
13312;BME280;34033;48.672;9.376;2022-12-18T04:31:09;99790.50;;;-5.41;63.20
13312;BME280;34033;48.672;9.376;2022-12-18T04:33:34;99792.59;;;-5.49;64.32
13312;BME280;34033;48.672;9.376;2022-12-18T04:35:59;99800.47;;;-5.52;64.09
13312;BME280;34033;48.672;9.376;2022-12-18T04:38:25;99797.97;;;-5.54;63.83
13312;BME280;34033;48.672;9.376;2022-12-18T04:40:50;99807.81;;;-5.53;63.19
13312;BME280;34033;48.672;9.376;2022-12-18T04:43:15;99811.03;;;-5.56;62.10
13312;BME280;34033;48.672;9.376;2022-12-18T04:45:41;99815.66;;;-5.56;63.97
13312;BME280;34033;48.672;9.376;2022-12-18T04:48:06;99815.34;;;-5.60;63.46
13312;BME280;34033;48.672;9.376;2022-12-18T04:50:31;99819.88;;;-5.65;62.39
13312;BME280;34033;48.672;9.376;2022-12-18T04:52:57;99828.06;;;-5.65;62.23
13312;BME280;34033;48.672;9.376;2022-12-18T04:55:22;99820.97;;;-5.66;64.54
13312;BME280;34033;48.672;9.376;2022-12-18T04:57:48;99816.59;;;-5.67;62.55
13312;BME280;34033;48.672;9.376;2022-12-18T05:00:14;99812.47;;;-5.70;62.52
13312;BME280;34033;48.672;9.376;2022-12-18T05:02:39;99805.31;;;-5.76;62.10
13312;BME280;34033;48.672;9.376;2022-12-18T05:05:05;99806.00;;;-5.85;61.11
13312;BME280;34033;48.672;9.376;2022-12-18T05:07:31;99806.81;;;-5.85;61.25
13312;BME280;34033;48.672;9.376;2022-12-18T05:09:56;99795.31;;;-5.92;59.33
13312;BME280;34033;48.672;9.376;2022-12-18T05:12:22;99793.16;;;-5.90;61.27
13312;BME280;34033;48.672;9.376;2022-12-18T05:14:47;99791.69;;;-5.98;61.72
13312;BME280;34033;48.672;9.376;2022-12-18T05:17:12;99797.72;;;-5.96;62.33
13312;BME280;34033;48.672;9.376;2022-12-18T05:19:38;99791.44;;;-5.96;61.36
13312;BME280;34033;48.672;9.376;2022-12-18T05:22:03;99796.06;;;-5.97;63.02
13312;BME280;34033;48.672;9.376;2022-12-18T05:24:28;99803.97;;;-5.95;62.24
13312;BME280;34033;48.672;9.376;2022-12-18T05:26:54;99800.34;;;-6.01;60.99
13312;BME280;34033;48.672;9.376;2022-12-18T05:29:19;99800.19;;;-6.11;61.20
13312;BME280;34033;48.672;9.376;2022-12-18T05:31:44;99812.25;;;-6.23;60.64
13312;BME280;34033;48.672;9.376;2022-12-18T05:34:10;99810.38;;;-6.23;62.06
13312;BME280;34033;48.672;9.376;2022-12-18T05:36:35;99802.28;;;-6.18;61.53
13312;BME280;34033;48.672;9.376;2022-12-18T05:39:00;99803.97;;;-6.12;63.33
13312;BME280;34033;48.672;9.376;2022-12-18T05:41:26;99807.03;;;-6.08;63.61
13312;BME280;34033;48.672;9.376;2022-12-18T05:43:52;99805.72;;;-6.06;63.84
13312;BME280;34033;48.672;9.376;2022-12-18T05:46:17;99816.53;;;-6.11;63.08
13312;BME280;34033;48.672;9.376;2022-12-18T05:48:43;99816.78;;;-6.12;62.02
13312;BME280;34033;48.672;9.376;2022-12-18T05:51:14;99812.16;;;-6.12;62.47
13312;BME280;34033;48.672;9.376;2022-12-18T05:53:41;99815.44;;;-6.10;63.21
13312;BME280;34033;48.672;9.376;2022-12-18T05:56:09;99808.69;;;-6.07;63.36
13312;BME280;34033;48.672;9.376;2022-12-18T05:58:35;99816.13;;;-6.03;63.28
13312;BME280;34033;48.672;9.376;2022-12-18T06:01:18;99813.63;;;-6.04;62.17
13312;BME280;34033;48.672;9.376;2022-12-18T06:03:44;99808.69;;;-6.07;61.37
13312;BME280;34033;48.672;9.376;2022-12-18T06:06:17;99803.41;;;-6.14;60.55
13312;BME280;34033;48.672;9.376;2022-12-18T06:08:43;99815.47;;;-6.26;60.80
13312;BME280;34033;48.672;9.376;2022-12-18T06:11:09;99807.66;;;-6.23;60.20
13312;BME280;34033;48.672;9.376;2022-12-18T06:13:35;99809.19;;;-6.27;62.13
13312;BME280;34033;48.672;9.376;2022-12-18T06:16:06;99809.19;;;-6.27;61.91
13312;BME280;34033;48.672;9.376;2022-12-18T06:18:33;99804.25;;;-6.30;61.40
13312;BME280;34033;48.672;9.376;2022-12-18T06:20:59;99808.38;;;-6.27;61.36
13312;BME280;34033;48.672;9.376;2022-12-18T06:23:25;99804.34;;;-6.25;62.04
13312;BME280;34033;48.672;9.376;2022-12-18T06:25:51;99812.97;;;-6.28;61.38
13312;BME280;34033;48.672;9.376;2022-12-18T06:28:16;99822.03;;;-6.39;58.97
13312;BME280;34033;48.672;9.376;2022-12-18T06:30:45;99815.22;;;-6.42;58.97
13312;BME280;34033;48.672;9.376;2022-12-18T06:33:11;99810.44;;;-6.51;60.78
13312;BME280;34033;48.672;9.376;2022-12-18T06:35:36;99810.44;;;-6.51;61.01
13312;BME280;34033;48.672;9.376;2022-12-18T06:38:02;99820.97;;;-6.55;61.17
13312;BME280;34033;48.672;9.376;2022-12-18T06:40:28;99826.41;;;-6.55;62.52
13312;BME280;34033;48.672;9.376;2022-12-18T06:42:53;99829.94;;;-6.54;62.02
13312;BME280;34033;48.672;9.376;2022-12-18T06:45:18;99833.03;;;-6.51;62.95
13312;BME280;34033;48.672;9.376;2022-12-18T06:47:44;99829.81;;;-6.48;63.20
13312;BME280;34033;48.672;9.376;2022-12-18T06:50:09;99848.53;;;-6.51;63.86
13312;BME280;34033;48.672;9.376;2022-12-18T06:52:35;99840.09;;;-6.50;62.76
13312;BME280;34033;48.672;9.376;2022-12-18T06:55:00;99854.69;;;-6.56;61.10
13312;BME280;34033;48.672;9.376;2022-12-18T06:57:25;99850.56;;;-6.58;61.58
13312;BME280;34033;48.672;9.376;2022-12-18T06:59:51;99850.56;;;-6.58;60.95
13312;BME280;34033;48.672;9.376;2022-12-18T07:02:17;99843.72;;;-6.61;64.10
13312;BME280;34033;48.672;9.376;2022-12-18T07:04:42;99842.88;;;-6.61;63.81
13312;BME280;34033;48.672;9.376;2022-12-18T07:07:07;99850.63;;;-6.70;61.21
13312;BME280;34033;48.672;9.376;2022-12-18T07:09:33;99856.97;;;-6.64;60.99
13312;BME280;34033;48.672;9.376;2022-12-18T07:11:58;99849.06;;;-6.66;60.38
13312;BME280;34033;48.672;9.376;2022-12-18T07:14:23;99858.78;;;-6.70;60.96
13312;BME280;34033;48.672;9.376;2022-12-18T07:16:49;99866.72;;;-6.68;62.84
13312;BME280;34033;48.672;9.376;2022-12-18T07:19:14;99868.09;;;-6.66;62.04
13312;BME280;34033;48.672;9.376;2022-12-18T07:21:39;99867.53;;;-6.68;60.28
13312;BME280;34033;48.672;9.376;2022-12-18T07:24:05;99876.41;;;-6.72;60.51
13312;BME280;34033;48.672;9.376;2022-12-18T07:26:31;99874.59;;;-6.84;59.99
13312;BME280;34033;48.672;9.376;2022-12-18T07:28:56;99884.88;;;-6.86;60.86
13312;BME280;34033;48.672;9.376;2022-12-18T07:31:22;99888.31;;;-6.90;59.54
13312;BME280;34033;48.672;9.376;2022-12-18T07:33:49;99885.41;;;-7.00;59.45
13312;BME280;34033;48.672;9.376;2022-12-18T07:36:14;99890.38;;;-7.09;59.38
13312;BME280;34033;48.672;9.376;2022-12-18T07:38:40;99879.84;;;-7.05;59.23
13312;BME280;34033;48.672;9.376;2022-12-18T07:43:33;99889.09;;;-7.18;62.73
13312;BME280;34033;48.672;9.376;2022-12-18T07:45:59;99889.31;;;-7.08;63.87
13312;BME280;34033;48.672;9.376;2022-12-18T07:48:24;99886.47;;;-7.01;62.57
13312;BME280;34033;48.672;9.376;2022-12-18T07:50:50;99897.06;;;-7.00;62.17
13312;BME280;34033;48.672;9.376;2022-12-18T07:53:15;99893.66;;;-6.95;61.76
13312;BME280;34033;48.672;9.376;2022-12-18T07:55:41;99886.88;;;-6.93;62.37
13312;BME280;34033;48.672;9.376;2022-12-18T07:58:07;99879.09;;;-6.89;62.16
13312;BME280;34033;48.672;9.376;2022-12-18T08:00:32;99887.97;;;-6.65;71.01
13312;BME280;34033;48.672;9.376;2022-12-18T08:02:58;99891.50;;;-5.86;95.52
13312;BME280;34033;48.672;9.376;2022-12-18T08:05:23;99891.75;;;-6.21;82.82
13312;BME280;34033;48.672;9.376;2022-12-18T08:07:49;99901.06;;;-6.34;67.44
13312;BME280;34033;48.672;9.376;2022-12-18T08:10:14;99887.25;;;-5.61;90.21
13312;BME280;34033;48.672;9.376;2022-12-18T08:12:40;99897.16;;;-5.71;85.34
13312;BME280;34033;48.672;9.376;2022-12-18T08:15:06;99898.53;;;-5.91;70.82
13312;BME280;34033;48.672;9.376;2022-12-18T08:17:31;99889.38;;;-6.01;63.79
13312;BME280;34033;48.672;9.376;2022-12-18T08:19:56;99889.78;;;-6.09;61.33
13312;BME280;34033;48.672;9.376;2022-12-18T08:22:22;99885.09;;;-6.14;62.73
13312;BME280;34033;48.672;9.376;2022-12-18T08:24:47;99891.44;;;-6.25;63.57
13312;BME280;34033;48.672;9.376;2022-12-18T08:27:12;99898.44;;;-6.29;64.46
13312;BME280;34033;48.672;9.376;2022-12-18T08:29:38;99899.28;;;-6.28;63.43
13312;BME280;34033;48.672;9.376;2022-12-18T08:32:03;99895.44;;;-6.27;61.25
13312;BME280;34033;48.672;9.376;2022-12-18T08:34:29;99897.69;;;-6.24;63.17
13312;BME280;34033;48.672;9.376;2022-12-18T08:36:54;99894.53;;;-6.33;62.20
13312;BME280;34033;48.672;9.376;2022-12-18T08:39:19;99891.66;;;-6.26;65.52
13312;BME280;34033;48.672;9.376;2022-12-18T08:41:45;99883.59;;;-6.21;65.35
13312;BME280;34033;48.672;9.376;2022-12-18T08:44:30;99886.38;;;-6.16;64.74
13312;BME280;34033;48.672;9.376;2022-12-18T08:47:05;99891.00;;;-6.17;64.04
13312;BME280;34033;48.672;9.376;2022-12-18T08:49:31;99877.59;;;-6.07;65.08
13312;BME280;34033;48.672;9.376;2022-12-18T08:51:57;99887.00;;;-5.21;88.97
13312;BME280;34033;48.672;9.376;2022-12-18T08:54:23;99876.91;;;-5.42;87.57
13312;BME280;34033;48.672;9.376;2022-12-18T08:56:49;99873.09;;;1.20;100.00
13312;BME280;34033;48.672;9.376;2022-12-18T08:59:15;99863.75;;;3.07;100.00
13312;BME280;34033;48.672;9.376;2022-12-18T09:01:41;99870.81;;;1.46;100.00
13312;BME280;34033;48.672;9.376;2022-12-18T09:04:08;99872.69;;;0.55;100.00
13312;BME280;34033;48.672;9.376;2022-12-18T09:06:34;99869.13;;;-0.52;100.00
13312;BME280;34033;48.672;9.376;2022-12-18T09:08:59;99868.31;;;-1.17;100.00
13312;BME280;34033;48.672;9.376;2022-12-18T09:11:26;99864.56;;;-1.66;100.00
13312;BME280;34033;48.672;9.376;2022-12-18T09:13:52;99858.00;;;-2.11;100.00
13312;BME280;34033;48.672;9.376;2022-12-18T09:16:19;99861.22;;;-2.55;100.00
13312;BME280;34033;48.672;9.376;2022-12-18T09:18:45;99863.78;;;-3.00;100.00
13312;BME280;34033;48.672;9.376;2022-12-18T09:21:18;99860.63;;;-3.34;100.00
13312;BME280;34033;48.672;9.376;2022-12-18T09:23:49;99854.41;;;-3.66;100.00
13312;BME280;34033;48.672;9.376;2022-12-18T09:26:14;99864.47;;;-3.72;78.34
13312;BME280;34033;48.672;9.376;2022-12-18T09:28:40;99862.84;;;-3.73;64.18
13312;BME280;34033;48.672;9.376;2022-12-18T09:31:07;99862.22;;;-3.80;61.92
13312;BME280;34033;48.672;9.376;2022-12-18T09:33:34;99867.69;;;-3.80;60.85
13312;BME280;34033;48.672;9.376;2022-12-18T09:36:02;99857.25;;;-3.88;61.56
13312;BME280;34033;48.672;9.376;2022-12-18T09:38:28;99848.78;;;-3.92;59.93
13312;BME280;34033;48.672;9.376;2022-12-18T09:41:06;99850.72;;;-3.87;60.04
13312;BME280;34033;48.672;9.376;2022-12-18T09:43:45;99851.50;;;-3.92;59.96
13312;BME280;34033;48.672;9.376;2022-12-18T09:46:17;99844.09;;;-3.91;61.33
13312;BME280;34033;48.672;9.376;2022-12-18T09:48:48;99847.41;;;-3.89;62.32
13312;BME280;34033;48.672;9.376;2022-12-18T09:51:18;99839.81;;;-3.82;61.86
13312;BME280;34033;48.672;9.376;2022-12-18T09:53:51;99848.06;;;-3.77;60.64
13312;BME280;34033;48.672;9.376;2022-12-18T09:56:19;99837.22;;;-3.62;61.08
13312;BME280;34033;48.672;9.376;2022-12-18T09:59:01;99834.00;;;-3.54;61.83
13312;BME280;34033;48.672;9.376;2022-12-18T10:01:28;99840.03;;;-3.47;59.97
13312;BME280;34033;48.672;9.376;2022-12-18T10:03:55;99830.47;;;-3.49;62.48
13312;BME280;34033;48.672;9.376;2022-12-18T10:09:32;99822.28;;;-3.44;60.93
13312;BME280;34033;48.672;9.376;2022-12-18T10:12:36;99822.28;;;-3.44;60.17
13312;BME280;34033;48.672;9.376;2022-12-18T10:15:16;99825.63;;;-3.37;61.55
13312;BME280;34033;48.672;9.376;2022-12-18T10:20:40;99814.72;;;-3.22;59.09
13312;BME280;34033;48.672;9.376;2022-12-18T10:23:25;99824.63;;;-3.11;60.03
13312;BME280;34033;48.672;9.376;2022-12-18T10:26:03;99818.94;;;-2.99;60.19
13312;BME280;34033;48.672;9.376;2022-12-18T10:28:33;99831.25;;;-2.86;60.04
13312;BME280;34033;48.672;9.376;2022-12-18T10:31:00;99830.50;;;-2.77;61.37
13312;BME280;34033;48.672;9.376;2022-12-18T10:33:29;99835.44;;;-2.69;60.27
13312;BME280;34033;48.672;9.376;2022-12-18T10:35:55;99834.91;;;-2.56;61.50
13312;BME280;34033;48.672;9.376;2022-12-18T10:41:44;99816.59;;;-1.94;78.10
13312;BME280;34033;48.672;9.376;2022-12-18T10:43:47;99813.28;;;-1.76;70.15
13312;BME280;34033;48.672;9.376;2022-12-18T10:46:19;99814.91;;;-1.50;73.71
13312;BME280;34033;48.672;9.376;2022-12-18T10:48:53;99825.78;;;-0.65;91.52
13312;BME280;34033;48.672;9.376;2022-12-18T10:51:29;99823.38;;;-0.77;73.01
13312;BME280;34033;48.672;9.376;2022-12-18T10:54:03;99826.22;;;-0.48;74.84
13312;BME280;34033;48.672;9.376;2022-12-18T10:56:31;99819.41;;;-0.51;66.61
13312;BME280;34033;48.672;9.376;2022-12-18T11:01:23;99818.13;;;-0.68;60.87
13312;BME280;34033;48.672;9.376;2022-12-18T11:06:22;99824.19;;;-0.76;59.49
13312;BME280;34033;48.672;9.376;2022-12-18T11:09:07;99813.25;;;-0.81;59.19
13312;BME280;34033;48.672;9.376;2022-12-18T11:11:49;99815.19;;;-0.87;60.16
13312;BME280;34033;48.672;9.376;2022-12-18T11:16:52;99804.50;;;-0.89;61.57
13312;BME280;34033;48.672;9.376;2022-12-18T11:19:37;99798.72;;;-0.87;61.68
13312;BME280;34033;48.672;9.376;2022-12-18T11:22:29;99792.69;;;-0.84;61.46
13312;BME280;34033;48.672;9.376;2022-12-18T11:25:00;99786.38;;;-0.85;61.12
13312;BME280;34033;48.672;9.376;2022-12-18T11:27:28;99787.97;;;-0.78;62.50
13312;BME280;34033;48.672;9.376;2022-12-18T11:30:08;99779.13;;;-0.70;62.29
13312;BME280;34033;48.672;9.376;2022-12-18T11:32:43;99772.94;;;-0.47;67.93
13312;BME280;34033;48.672;9.376;2022-12-18T11:35:30;99770.31;;;-0.28;65.48
13312;BME280;34033;48.672;9.376;2022-12-18T11:38:04;99762.78;;;-0.13;64.40
13312;BME280;34033;48.672;9.376;2022-12-18T11:40:35;99752.72;;;0.02;63.19
13312;BME280;34033;48.672;9.376;2022-12-18T11:43:11;99761.41;;;0.14;62.90
13312;BME280;34033;48.672;9.376;2022-12-18T11:45:49;99767.63;;;0.24;62.46
13312;BME280;34033;48.672;9.376;2022-12-18T11:50:56;99746.88;;;0.37;62.00
13312;BME280;34033;48.672;9.376;2022-12-18T11:53:22;99754.53;;;1.06;89.55
13312;BME280;34033;48.672;9.376;2022-12-18T11:58:47;99730.88;;;0.87;65.36
13312;BME280;34033;48.672;9.376;2022-12-18T12:01:40;99726.88;;;1.35;80.38
13312;BME280;34033;48.672;9.376;2022-12-18T12:23:53;99696.16;;;5.10;100.00
13312;BME280;34033;48.672;9.376;2022-12-18T12:26:30;99692.16;;;4.28;87.58
13312;BME280;34033;48.672;9.376;2022-12-18T12:29:14;99695.19;;;3.65;70.68
13312;BME280;34033;48.672;9.376;2022-12-18T12:40:24;99695.53;;;2.09;58.70
13312;BME280;34033;48.672;9.376;2022-12-18T12:42:59;99700.13;;;1.87;59.21
13312;BME280;34033;48.672;9.376;2022-12-18T12:45:49;99696.88;;;1.66;59.16
13312;BME280;34033;48.672;9.376;2022-12-18T12:48:21;99706.31;;;1.46;59.12
13312;BME280;34033;48.672;9.376;2022-12-18T12:50:50;99696.47;;;2.05;83.62
13312;BME280;34033;48.672;9.376;2022-12-18T12:53:27;99691.63;;;1.83;67.21
13312;BME280;34033;48.672;9.376;2022-12-18T12:55:54;99684.34;;;1.74;62.31
13312;BME280;34033;48.672;9.376;2022-12-18T13:01:32;99699.97;;;1.46;61.62
13312;BME280;34033;48.672;9.376;2022-12-18T13:04:08;99694.34;;;1.37;61.98
13312;BME280;34033;48.672;9.376;2022-12-18T13:06:40;99712.56;;;1.33;61.20
13312;BME280;34033;48.672;9.376;2022-12-18T13:09:07;99705.00;;;1.25;61.33
13312;BME280;34033;48.672;9.376;2022-12-18T13:11:45;99716.91;;;1.20;61.59
13312;BME280;34033;48.672;9.376;2022-12-18T13:14:35;99724.94;;;1.17;62.42
13312;BME280;34033;48.672;9.376;2022-12-18T13:19:42;99724.03;;;1.21;63.02
13312;BME280;34033;48.672;9.376;2022-12-18T13:22:21;99720.97;;;1.23;62.95
13312;BME280;34033;48.672;9.376;2022-12-18T13:24:47;99716.66;;;1.17;62.55
13312;BME280;34033;48.672;9.376;2022-12-18T13:38:38;99718.88;;;0.96;63.68
13312;BME280;34033;48.672;9.376;2022-12-18T13:43:33;99716.59;;;1.03;64.59
13312;BME280;34033;48.672;9.376;2022-12-18T13:46:04;99717.03;;;1.10;63.38
13312;BME280;34033;48.672;9.376;2022-12-18T13:48:33;99712.06;;;1.12;63.98
13312;BME280;34033;48.672;9.376;2022-12-18T13:53:29;99702.75;;;1.08;64.54
13312;BME280;34033;48.672;9.376;2022-12-18T13:55:55;99708.56;;;1.07;66.02
13312;BME280;34033;48.672;9.376;2022-12-18T13:58:21;99695.91;;;1.06;66.00
13312;BME280;34033;48.672;9.376;2022-12-18T14:00:46;99697.00;;;1.05;64.09
13312;BME280;34033;48.672;9.376;2022-12-18T14:05:45;99708.69;;;0.97;64.35
13312;BME280;34033;48.672;9.376;2022-12-18T14:08:14;99708.69;;;0.97;64.68
13312;BME280;34033;48.672;9.376;2022-12-18T14:10:41;99706.84;;;0.92;65.11
13312;BME280;34033;48.672;9.376;2022-12-18T14:13:09;99712.34;;;0.92;65.34
13312;BME280;34033;48.672;9.376;2022-12-18T14:15:39;99719.84;;;0.87;65.09
13312;BME280;34033;48.672;9.376;2022-12-18T14:20:44;99722.44;;;0.78;65.11
13312;BME280;34033;48.672;9.376;2022-12-18T14:23:29;99715.25;;;0.82;65.73
13312;BME280;34033;48.672;9.376;2022-12-18T14:25:54;99719.59;;;0.83;65.52
13312;BME280;34033;48.672;9.376;2022-12-18T14:28:20;99719.38;;;0.79;64.56
13312;BME280;34033;48.672;9.376;2022-12-18T14:30:47;99712.38;;;0.68;64.63
13312;BME280;34033;48.672;9.376;2022-12-18T14:33:15;99718.94;;;0.72;64.77
13312;BME280;34033;48.672;9.376;2022-12-18T14:35:55;99726.91;;;0.74;65.85
13312;BME280;34033;48.672;9.376;2022-12-18T14:41:00;99737.91;;;0.50;66.09
13312;BME280;34033;48.672;9.376;2022-12-18T14:43:28;99734.88;;;0.52;65.39
13312;BME280;34033;48.672;9.376;2022-12-18T14:45:54;99720.69;;;0.39;65.78
13312;BME280;34033;48.672;9.376;2022-12-18T14:50:54;99728.47;;;0.80;85.23
13312;BME280;34033;48.672;9.376;2022-12-18T14:53:28;99724.56;;;0.62;74.53
13312;BME280;34033;48.672;9.376;2022-12-18T14:55:56;99727.03;;;0.40;69.53
13312;BME280;34033;48.672;9.376;2022-12-18T14:58:22;99723.28;;;0.31;69.25
13312;BME280;34033;48.672;9.376;2022-12-18T15:00:47;99729.41;;;0.23;69.68